NATURA VA

 INFORMACIÓN METAR y TAF
METAR FOR LEHC
ADDS - METARS form results

(2349 UTC 17 June 2019)
Data provider http://aviationweather.gov/metar/data/
 
METAR text: LEHC 172330Z AUTO 04008KT CAVOK 20/11 Q1016
Conditions at: LEHC (HUESCA-PIRINEOS , ES) observed 2330 UTC 17 June 2019
Temperature: 20.0°C (68°F)
Dewpoint: 11.0°C (52°F) [RH = 56%]
Pressure (altimeter): 30.00 inches Hg (1016.0 mb)
Winds: from the NE (40 degrees) at 9 MPH (8 knots; 4.1 m/s)
Visibility: 6 or more miles (10+ km)
Ceiling: ceiling and visibility are OK
Clouds: unknown
Weather: no significant weather observed at this time

METAR text: LEHC 172300Z AUTO 05008KT CAVOK 20/11 Q1016
Conditions at: LEHC (HUESCA-PIRINEOS , ES) observed 2300 UTC 17 June 2019
Temperature: 20.0°C (68°F)
Dewpoint: 11.0°C (52°F) [RH = 56%]
Pressure (altimeter): 30.00 inches Hg (1016.0 mb)
Winds: from the NE (50 degrees) at 9 MPH (8 knots; 4.1 m/s)
Visibility: 6 or more miles (10+ km)
Ceiling: ceiling and visibility are OK
Clouds: unknown
Weather: no significant weather observed at this time

Forecast for: LEHC (HUESCA-PIRINEOS , ES)
Text: TAF LEHC 171400Z 1715/1815 09005KT 9999 FEW060 TX34/1814Z TN19/1805Z
Forecast period: 1500 to 1800 UTC 17 June 2019
Forecast type: FROM: standard forecast or significant change
Winds: from the E (90 degrees) at 6 MPH (5 knots; 2.6 m/s)
Visibility: 6 or more miles 10+ km)
Ceiling: at least 12,000 feet AGL
Clouds: few clouds at 6000 feet AGL
Weather: no significant weather forecast for this period
Text: BECMG 1718/1720 10014KT
Forecast period: 1800 UTC 17 June 2019 to 1000 UTC 18 June 2019
Forecast type: BECOMING: Conditions expected to become as follows by 2000 UTC 17 June 2019
Winds: from the E (100 degrees) at 16 MPH (14 knots; 7.2 m/s)
Visibility: 6 or more miles 10+ km)
Ceiling: at least 12,000 feet AGL
Clouds: few clouds at 6000 feet AGL
Weather: no significant weather forecast for this period
Text: BECMG 1810/1812 15010KT
Forecast period: 1000 to 1500 UTC 18 June 2019
Forecast type: BECOMING: Conditions expected to become as follows by 1200 UTC 18 June 2019
Winds: from the SSE (150 degrees) at 12 MPH (10 knots; 5.1 m/s)
Visibility: 6 or more miles 10+ km)
Ceiling: at least 12,000 feet AGL
Clouds: few clouds at 6000 feet AGL
Weather: no significant weather forecast for this period

 MAPA DE AEROPUERTO

 INFORMACIÓN DE PISTA

 FRECUANCIAS DEL AEROPUERTO

 RADIO AYUDAS DEL AEROPUERTO



Powered by Virtual Airlines Manager [v2.6.2]